Swift Current Airport, Saskatchewan

Past 24 Hour Conditions

Date / Time
(CST)
Conditions Temp
(°F)
Humidity
(%)
Dew Point
(°F)
Wind
(mph)
Pressure
(inches)
Visibility
(miles)
06 July 2015
5:00 N/A 46   N/A N/A WSW 9 30.2 4
4:00 Mist 47 92 44 S 5 30.2 4
3:00 Mist 47 94 45 WNW 7 30.2 5
2:00 Mostly Cloudy 50 89 47 W 9 30.2 7
1:00 Cloudy 54 73 46 NNE 5 30.2 8
00:00 Cloudy 55 75 47 NNE 8 30.2 10
05 July 2015
23:00 Cloudy 56 77 49 NNW 5 30.2 8
22:00 Cloudy 57 73 48 NNW 7 30.2 8
21:00 Cloudy 58 67 47 NW 7 30.2 10
20:00 Cloudy 59 63 46 NW 8 30.2 8
19:00 Cloudy 60 62 47 NW 10 30.1 10
18:00 Cloudy 60 66 49 NW 10 30.1 10
17:00 Cloudy 62 59 48 NNW 16 gust 22 30.1 10
16:00 Cloudy 64 58 48 NW 16 gust 24 30.1 10
15:00 Cloudy 61 63 48 NNW 15 gust 21 30.1 10
14:00 Mostly Cloudy 65   50 46 WNW 15 gust 24 30.1 10
13:00 Cloudy 62 57 47 NW 13 gust 22 30.1 10
12:00 Mostly Cloudy 61 63 49 WNW 16 gust 23 30.1 10
11:00 Mainly Sunny 62 61 49 NW 15 gust 21 30.0 10
10:00 Cloudy 58 71 49 NW 15 30.1 10
9:00 Partly Cloudy 56 80 50 WNW 11 30.0 10
8:00 Mostly Cloudy 55 85 51 WNW 11 gust 17 30.0 10
7:00 Partly Cloudy 54 87 51 W 11 gust 18 30.0 10
6:00 Mostly Cloudy 53 86 49 WNW 11 gust 17 30.0 10
5:00 Mainly Clear 53 82 47 WNW 11 30.0 10
N/A Not available
↑ Highest temperature
↓ Lowest temperature

If you require additional historical weather information, please visit Climate Data Online.

What we are doing

Date modified: